createdAt,value
2022-08-05T00:01:35.459Z,2.28
2022-08-05T00:04:08.173Z,2.83
2022-08-05T00:06:37.857Z,2.40
2022-08-05T00:09:12.868Z,2.70
2022-08-05T00:11:49.469Z,2.08
2022-08-05T00:14:27.485Z,2.47
2022-08-05T00:16:57.221Z,2.45
2022-08-05T00:19:40.641Z,2.40
2022-08-05T00:22:15.148Z,2.40
2022-08-05T00:24:46.087Z,2.50
2022-08-05T00:27:36.326Z,2.45
2022-08-05T00:30:11.296Z,2.75
2022-08-05T00:32:40.569Z,2.80
2022-08-05T00:35:09.686Z,2.70
2022-08-05T00:37:52.384Z,2.67
2022-08-05T00:40:26.723Z,2.70
2022-08-05T00:42:57.590Z,2.75
2022-08-05T00:45:38.057Z,2.72
2022-08-05T00:48:10.062Z,2.97
2022-08-05T00:50:38.990Z,2.78
2022-08-05T00:54:00.707Z,2.72
2022-08-05T00:55:59.696Z,2.60
2022-08-05T00:58:28.257Z,2.80
2022-08-05T01:00:56.478Z,3.00
2022-08-05T01:03:31.028Z,2.70
2022-08-05T01:06:03.779Z,2.75
2022-08-05T01:08:42.834Z,2.60
2022-08-05T01:11:22.495Z,2.80
2022-08-05T01:14:01.181Z,2.90
2022-08-05T01:16:34.793Z,2.78
2022-08-05T01:19:14.157Z,2.85
2022-08-05T01:22:27.987Z,2.55
2022-08-05T01:25:10.080Z,2.40
2022-08-05T01:28:14.312Z,2.60
2022-08-05T01:30:53.728Z,2.70
2022-08-05T01:33:35.500Z,2.90
2022-08-05T01:36:13.135Z,3.20
2022-08-05T01:38:46.402Z,3.10
2022-08-05T01:41:22.034Z,3.00
2022-08-05T01:43:53.157Z,3.10
2022-08-05T01:46:41.482Z,2.80
2022-08-05T01:49:23.054Z,2.97
2022-08-05T01:51:56.240Z,3.28
2022-08-05T01:54:31.137Z,3.13
2022-08-05T01:58:12.247Z,3.00
2022-08-05T01:59:52.632Z,3.00
2022-08-05T02:02:28.420Z,3.08
2022-08-05T02:04:59.366Z,2.72
2022-08-05T02:07:30.461Z,3.00
2022-08-05T02:09:58.950Z,3.25
2022-08-05T02:12:35.754Z,3.08
2022-08-05T02:15:12.407Z,2.90
2022-08-05T02:18:32.146Z,2.90
2022-08-05T02:20:48.569Z,2.92
2022-08-05T02:23:21.691Z,3.08
2022-08-05T02:25:52.044Z,3.20
2022-08-05T02:28:28.633Z,2.97
2022-08-05T02:31:04.118Z,2.83
2022-08-05T02:33:38.472Z,3.10
2022-08-05T02:36:10.312Z,2.83
2022-08-05T02:38:43.796Z,2.97
2022-08-05T02:41:22.957Z,3.30
2022-08-05T02:44:02.443Z,2.80
2022-08-05T02:46:53.738Z,2.72
2022-08-05T02:49:27.209Z,2.75
2022-08-05T02:52:06.833Z,3.10
2022-08-05T02:54:37.423Z,2.90
2022-08-05T02:57:09.881Z,3.17
2022-08-05T02:59:56.277Z,2.80
2022-08-05T03:02:29.908Z,3.17
2022-08-05T03:05:00.105Z,3.53
2022-08-05T03:08:00.937Z,3.15
2022-08-05T03:10:21.841Z,3.17
2022-08-05T03:12:53.940Z,3.15
2022-08-05T03:15:23.477Z,3.20
2022-08-05T03:17:55.553Z,3.05
2022-08-05T03:20:24.920Z,3.58
2022-08-05T03:22:55.376Z,3.33
2022-08-05T03:25:32.809Z,3.38
2022-08-05T03:28:18.648Z,3.15
2022-08-05T03:30:49.187Z,3.55
2022-08-05T03:33:19.385Z,3.17
2022-08-05T03:35:48.285Z,2.97
2022-08-05T03:38:32.664Z,3.17
2022-08-05T03:41:08.445Z,3.33
2022-08-05T03:44:09.637Z,3.15
2022-08-05T03:46:29.764Z,3.38
2022-08-05T03:48:59.774Z,3.72
2022-08-05T03:52:37.710Z,3.67
2022-08-05T03:56:09.851Z,3.30
2022-08-05T03:57:21.876Z,3.03
2022-08-05T04:00:12.566Z,3.30
2022-08-05T04:02:57.943Z,3.35
2022-08-05T04:05:33.963Z,3.00
2022-08-05T04:08:05.819Z,2.90
2022-08-05T04:10:53.055Z,3.53
2022-08-05T04:13:21.675Z,3.17
2022-08-05T04:16:02.816Z,3.17
2022-08-05T04:18:32.258Z,3.10
2022-08-05T04:21:05.417Z,3.15
2022-08-05T04:24:05.147Z,3.08
2022-08-05T04:26:23.549Z,3.40
2022-08-05T04:28:52.131Z,3.47
2022-08-05T04:31:20.503Z,3.08
2022-08-05T04:34:19.302Z,3.20
2022-08-05T04:36:45.576Z,3.00
2022-08-05T04:39:17.656Z,3.40
2022-08-05T04:41:48.167Z,3.13
2022-08-05T04:44:29.079Z,3.08
2022-08-05T04:46:58.574Z,2.95
2022-08-05T04:49:38.619Z,3.38
2022-08-05T04:52:16.608Z,2.90
2022-08-05T04:54:44.753Z,3.40
2022-08-05T04:57:12.757Z,3.13
2022-08-05T04:59:41.135Z,3.50
2022-08-05T05:02:37.593Z,3.70
2022-08-05T05:05:02.780Z,3.33
2022-08-05T05:07:35.666Z,3.03
2022-08-05T05:10:06.276Z,4.53
2022-08-05T05:12:36.718Z,3.47
2022-08-05T05:15:10.900Z,3.40
2022-08-05T05:17:56.672Z,3.08
2022-08-05T05:20:28.507Z,3.05
2022-08-05T05:22:58.564Z,2.92
2022-08-05T05:25:40.345Z,3.22
2022-08-05T05:28:09.313Z,3.25
2022-08-05T05:30:37.926Z,3.40
2022-08-05T05:33:15.934Z,3.28
2022-08-05T05:35:48.038Z,3.25
2022-08-05T05:38:27.200Z,3.63
2022-08-05T05:40:57.035Z,3.28
2022-08-05T05:43:57.246Z,3.58
2022-08-05T05:46:17.345Z,3.55
2022-08-05T05:48:47.862Z,3.28
2022-08-05T05:51:21.419Z,3.22
2022-08-05T05:53:58.367Z,2.88
2022-08-05T05:56:32.984Z,3.08
2022-08-05T05:59:05.086Z,3.22
2022-08-05T06:01:37.074Z,3.10
2022-08-05T06:04:08.121Z,3.20
2022-08-05T06:06:37.060Z,3.65
2022-08-05T06:09:17.389Z,3.40
2022-08-05T06:12:01.747Z,3.10
2022-08-05T06:14:33.270Z,3.40
2022-08-05T06:17:21.728Z,3.15
2022-08-05T06:19:56.831Z,3.65
2022-08-05T06:22:29.867Z,3.78
2022-08-05T06:24:59.888Z,3.75
2022-08-05T06:28:12.713Z,3.47
2022-08-05T06:30:19.937Z,3.20
2022-08-05T06:32:50.633Z,3.42
2022-08-05T06:36:02.926Z,3.50
2022-08-05T06:38:10.113Z,3.53
2022-08-05T06:40:42.263Z,3.47
2022-08-05T06:43:58.457Z,3.25
2022-08-05T06:46:06.642Z,3.88
2022-08-05T06:48:56.379Z,3.47
2022-08-05T06:51:30.014Z,3.80
2022-08-05T06:53:59.375Z,3.70
2022-08-05T06:56:30.143Z,3.92
2022-08-05T06:59:01.660Z,3.65
2022-08-05T07:01:32.183Z,3.78
2022-08-05T07:04:03.139Z,3.80
2022-08-05T07:06:31.889Z,3.53
2022-08-05T07:09:04.194Z,3.15
2022-08-05T07:11:37.125Z,3.58
2022-08-05T07:14:29.808Z,3.50
2022-08-05T07:18:01.400Z,3.35
2022-08-05T07:22:41.954Z,3.25
2022-08-05T07:25:54.085Z,3.47
2022-08-05T07:28:07.253Z,3.40
2022-08-05T07:30:39.746Z,3.55
2022-08-05T07:33:16.496Z,3.45
2022-08-05T07:36:03.567Z,3.15
2022-08-05T07:38:42.660Z,3.65
2022-08-05T07:42:06.863Z,3.22
2022-08-05T07:44:03.983Z,3.03
2022-08-05T07:46:36.281Z,3.38
2022-08-05T07:49:07.835Z,2.90
2022-08-05T07:51:40.882Z,3.13
2022-08-05T07:54:18.701Z,3.38
2022-08-05T07:57:01.717Z,2.97
2022-08-05T07:59:39.725Z,2.80
2022-08-05T08:02:16.232Z,2.88
2022-08-05T08:04:48.211Z,2.80
2022-08-05T08:07:17.941Z,3.20
2022-08-05T08:09:46.597Z,2.72
2022-08-05T08:12:35.397Z,2.40
2022-08-05T08:15:09.733Z,2.28
2022-08-05T08:17:50.789Z,2.33
2022-08-05T08:20:43.532Z,2.47
2022-08-05T08:23:11.728Z,2.28
2022-08-05T08:26:00.107Z,2.10
2022-08-05T08:28:36.155Z,2.30
2022-08-05T08:31:07.931Z,2.30
2022-08-05T08:33:37.897Z,2.20
2022-08-05T08:36:39.263Z,2.50
2022-08-05T08:38:56.993Z,2.10
2022-08-05T08:41:51.091Z,2.40
2022-08-05T08:45:22.578Z,2.72
2022-08-05T08:47:47.179Z,2.17
2022-08-05T08:50:06.197Z,2.30
2022-08-05T08:52:51.733Z,2.40
2022-08-05T08:56:03.140Z,2.55
2022-08-05T08:58:12.926Z,2.75
2022-08-05T09:00:42.926Z,2.30
2022-08-05T09:03:16.159Z,2.58
2022-08-05T09:06:09.233Z,2.60
2022-08-05T09:08:40.050Z,2.40
2022-08-05T09:11:13.717Z,2.50
2022-08-05T09:14:00.992Z,2.60
2022-08-05T09:16:31.055Z,2.80
2022-08-05T09:19:00.559Z,2.60
2022-08-05T09:22:22.888Z,2.63
2022-08-05T09:24:18.330Z,2.60
2022-08-05T09:26:52.499Z,2.63
2022-08-05T09:29:20.774Z,2.40
2022-08-05T09:32:41.921Z,2.58
2022-08-05T09:34:56.021Z,2.47
2022-08-05T09:38:16.403Z,2.38
2022-08-05T09:40:30.966Z,2.55
2022-08-05T09:43:01.171Z,2.40
2022-08-05T09:46:06.524Z,2.40
2022-08-05T09:48:30.061Z,2.63
2022-08-05T09:51:01.932Z,2.58
2022-08-05T09:53:54.062Z,2.38
2022-08-05T09:56:27.070Z,2.30
2022-08-05T09:59:04.037Z,2.40
2022-08-05T10:01:35.185Z,2.47
2022-08-05T10:04:11.043Z,2.38
2022-08-05T10:06:54.773Z,2.65
2022-08-05T10:09:28.153Z,3.03
2022-08-05T10:16:52.760Z,2.40
2022-08-05T10:20:02.714Z,2.53
2022-08-05T10:22:30.098Z,2.40
2022-08-05T10:24:59.154Z,2.38
2022-08-05T10:28:09.651Z,2.50
2022-08-05T10:31:20.213Z,2.35
2022-08-05T10:33:14.890Z,2.30
2022-08-05T10:35:59.231Z,2.50
2022-08-05T10:38:33.188Z,2.33
2022-08-05T10:41:07.930Z,2.17
2022-08-05T10:43:59.267Z,2.28
2022-08-05T10:47:31.289Z,2.20
2022-08-05T10:50:36.470Z,2.60
2022-08-05T10:53:06.829Z,2.00
2022-08-05T11:00:03.157Z,2.50
2022-08-05T11:02:51.553Z,2.40
2022-08-05T11:05:49.916Z,2.33
2022-08-05T11:08:39.121Z,2.30
2022-08-05T11:26:29.181Z,2.47
2022-08-05T11:29:13.385Z,2.20
2022-08-05T11:32:25.660Z,2.10
2022-08-05T11:34:54.240Z,2.42
2022-08-05T11:38:26.390Z,2.38
2022-08-05T11:46:27.088Z,2.25
2022-08-05T11:48:39.853Z,2.40
2022-08-05T11:59:41.224Z,1.88
2022-08-05T12:02:30.057Z,1.98
2022-08-05T12:05:07.175Z,1.80
2022-08-05T12:15:49.983Z,2.00
2022-08-05T12:18:59.085Z,2.17
2022-08-05T12:24:50.683Z,2.47
2022-08-05T12:27:53.066Z,2.50
2022-08-05T12:30:47.284Z,2.60
2022-08-05T12:33:27.544Z,2.55
2022-08-05T12:36:38.859Z,2.50
2022-08-05T12:40:10.719Z,2.17
2022-08-05T12:47:25.455Z,2.33
2022-08-05T12:52:10.580Z,2.40
2022-08-05T12:54:16.556Z,2.30
2022-08-05T12:56:54.513Z,2.40
2022-08-05T12:59:27.585Z,2.22
2022-08-05T13:02:14.290Z,2.38
2022-08-05T13:04:52.585Z,2.58
2022-08-05T13:07:47.798Z,2.42
2022-08-05T13:10:19.755Z,2.40
2022-08-05T13:12:57.108Z,2.50
2022-08-05T13:15:41.241Z,2.40
2022-08-05T13:18:19.411Z,2.58
2022-08-05T13:23:55.474Z,2.60
2022-08-05T13:26:29.901Z,2.63
2022-08-05T13:29:03.205Z,2.78
2022-08-05T13:32:03.911Z,2.33
2022-08-05T13:34:27.617Z,2.17
2022-08-05T13:37:04.263Z,2.55
2022-08-05T13:40:16.783Z,2.55
2022-08-05T13:52:29.166Z,2.55
2022-08-05T13:55:07.354Z,2.40
2022-08-05T13:57:51.203Z,2.20
2022-08-05T14:00:26.825Z,2.42
2022-08-05T14:02:56.828Z,2.28
2022-08-05T14:10:11.742Z,2.35
2022-08-05T14:20:07.587Z,2.65
2022-08-05T14:22:39.777Z,2.40
2022-08-05T14:25:28.075Z,2.42
2022-08-05T14:28:01.340Z,2.55
2022-08-05T14:30:29.920Z,2.50
2022-08-05T14:32:59.611Z,2.30
2022-08-05T14:38:52.437Z,2.15
2022-08-05T14:41:22.361Z,2.45
2022-08-05T14:44:01.666Z,2.20
2022-08-05T14:46:42.399Z,2.15
2022-08-05T14:50:17.371Z,2.42
2022-08-05T14:53:44.853Z,2.20
2022-08-05T14:57:02.678Z,2.30
2022-08-05T14:59:39.540Z,2.47
2022-08-05T15:13:00.868Z,2.28
2022-08-05T15:15:54.885Z,2.40
2022-08-05T15:18:22.971Z,2.50
2022-08-05T15:20:51.348Z,2.45
2022-08-05T15:23:19.547Z,2.72
2022-08-05T15:25:52.279Z,2.60
2022-08-05T15:28:27.295Z,2.50
2022-08-05T15:30:57.702Z,2.63
2022-08-05T15:34:05.324Z,2.67
2022-08-05T15:36:17.497Z,2.55
2022-08-05T15:40:59.658Z,2.53
2022-08-05T15:41:55.858Z,2.20
2022-08-05T15:44:51.813Z,2.67
2022-08-05T16:07:13.578Z,3.30
2022-08-05T16:09:44.078Z,3.10
2022-08-05T16:12:12.267Z,3.10
2022-08-05T16:22:52.597Z,3.30
2022-08-05T16:29:50.425Z,3.10
2022-08-05T16:44:57.037Z,3.30
2022-08-05T16:58:35.560Z,3.28
2022-08-05T17:01:06.608Z,3.28
2022-08-05T17:03:38.934Z,3.40
2022-08-05T17:06:08.029Z,3.00
2022-08-05T17:08:54.896Z,3.70
2022-08-05T17:22:46.004Z,3.17
2022-08-05T17:26:12.671Z,3.33
2022-08-05T17:28:43.328Z,3.08
2022-08-05T17:31:24.414Z,3.15
2022-08-05T17:34:12.303Z,3.00
2022-08-05T17:40:32.346Z,3.03
2022-08-05T17:47:11.632Z,3.15
2022-08-05T17:49:59.715Z,3.30
2022-08-05T17:52:31.619Z,3.13
2022-08-05T17:55:49.037Z,3.10
2022-08-05T18:02:24.180Z,3.15
2022-08-05T18:05:00.529Z,3.00
2022-08-05T18:07:41.724Z,3.05
2022-08-05T18:10:14.049Z,3.10
2022-08-05T18:12:49.523Z,3.30
2022-08-05T18:15:17.871Z,3.10
2022-08-05T18:17:58.959Z,2.80
2022-08-05T18:21:13.334Z,3.42
2022-08-05T18:27:52.440Z,3.10
2022-08-05T18:30:20.976Z,3.17
2022-08-05T18:32:53.383Z,2.88
2022-08-05T18:36:01.398Z,3.30
2022-08-05T18:38:26.028Z,3.10
2022-08-05T18:41:57.469Z,3.10
2022-08-05T18:43:48.771Z,3.10
2022-08-05T18:46:20.201Z,3.20
2022-08-05T18:48:52.799Z,3.50
2022-08-05T18:52:04.053Z,2.90
2022-08-05T18:54:28.365Z,3.40
2022-08-05T18:57:09.864Z,3.30
2022-08-05T19:00:02.940Z,3.20
2022-08-05T19:06:45.339Z,3.50
2022-08-05T19:12:28.368Z,4.05
2022-08-05T19:15:00.831Z,4.50
2022-08-05T19:17:58.288Z,4.80
2022-08-05T19:20:18.999Z,5.60
2022-08-05T19:22:51.064Z,6.22
2022-08-05T19:25:29.588Z,6.10
2022-08-05T19:27:59.864Z,5.82
2022-08-05T19:30:33.436Z,6.18
2022-08-05T19:33:05.132Z,6.05
2022-08-05T19:35:56.444Z,6.68
2022-08-05T19:38:26.646Z,6.60
2022-08-05T19:40:55.076Z,6.40
2022-08-05T19:44:04.879Z,6.15
2022-08-05T19:46:29.024Z,7.10
2022-08-05T19:49:02.852Z,6.97
2022-08-05T19:52:05.132Z,7.45
2022-08-05T19:54:26.799Z,7.90
2022-08-05T19:56:59.823Z,8.50
2022-08-05T19:59:55.505Z,9.10
2022-08-05T20:02:26.183Z,9.52
2022-08-05T20:04:58.854Z,9.35
2022-08-05T20:07:46.911Z,9.13
2022-08-05T20:11:18.088Z,9.30
2022-08-05T20:17:35.314Z,9.95
2022-08-05T20:20:11.150Z,10.32
2022-08-05T20:22:41.458Z,10.65
2022-08-05T20:25:18.424Z,10.73
2022-08-05T20:27:46.835Z,10.48
2022-08-05T20:30:23.713Z,11.10
2022-08-05T20:33:15.765Z,10.45
2022-08-05T20:39:45.191Z,10.52
2022-08-05T20:42:21.783Z,10.95
2022-08-05T20:44:50.093Z,10.80
2022-08-05T20:47:18.564Z,11.07
2022-08-05T20:49:51.320Z,10.30
2022-08-05T20:52:19.528Z,10.32
2022-08-05T20:54:59.662Z,10.88
2022-08-05T20:57:47.829Z,10.15
2022-08-05T21:00:34.944Z,11.70
2022-08-05T21:03:08.058Z,13.68
2022-08-05T21:05:53.606Z,14.57
2022-08-05T21:08:26.676Z,15.23
2022-08-05T21:11:01.737Z,16.65
2022-08-05T21:13:48.319Z,15.95
2022-08-05T21:16:29.641Z,16.08
2022-08-05T21:19:00.356Z,16.23
2022-08-05T21:21:38.970Z,16.48
2022-08-05T21:24:15.433Z,17.23
2022-08-05T21:26:50.565Z,16.83
2022-08-05T21:29:31.266Z,15.82
2022-08-05T21:32:00.905Z,17.40
2022-08-05T21:34:28.975Z,15.43
2022-08-05T21:37:01.649Z,16.05
2022-08-05T21:39:30.266Z,14.75
2022-08-05T21:42:02.778Z,15.02
2022-08-05T21:44:31.800Z,15.07
2022-08-05T21:47:00.277Z,14.68
2022-08-05T21:49:48.279Z,14.35
2022-08-05T21:52:27.328Z,14.35
2022-08-05T21:54:56.549Z,14.82
2022-08-05T21:57:32.552Z,14.18
2022-08-05T22:00:06.238Z,13.73
2022-08-05T22:02:35.121Z,14.73
2022-08-05T22:05:04.308Z,12.85
2022-08-05T22:07:40.352Z,14.77
2022-08-05T22:10:25.521Z,13.50
2022-08-05T22:12:57.528Z,12.98
2022-08-05T22:16:01.060Z,12.93
2022-08-05T22:18:15.832Z,13.27
2022-08-05T22:20:47.752Z,12.63
2022-08-05T22:24:00.831Z,13.95
2022-08-05T22:26:50.012Z,12.00
2022-08-05T22:29:26.309Z,11.82
2022-08-05T22:31:59.565Z,11.43
2022-08-05T22:34:31.308Z,11.98
2022-08-05T22:37:00.589Z,11.60
2022-08-05T22:39:34.556Z,11.68
2022-08-05T22:42:09.493Z,10.73
2022-08-05T22:44:56.352Z,9.98
2022-08-05T22:47:30.106Z,10.88
2022-08-05T22:50:19.595Z,9.63
2022-08-05T22:52:48.085Z,9.75
2022-08-05T22:55:21.105Z,9.88
2022-08-05T22:57:50.456Z,8.80
2022-08-05T23:00:43.614Z,8.40
2022-08-05T23:03:13.747Z,8.88
2022-08-05T23:05:42.129Z,8.40
2022-08-05T23:08:12.360Z,8.75
2022-08-05T23:10:46.054Z,7.68
2022-08-05T23:13:14.555Z,7.80
2022-08-05T23:15:42.797Z,7.70
2022-08-05T23:18:11.574Z,6.95
2022-08-05T23:20:43.976Z,6.40
2022-08-05T23:23:12.353Z,6.32
2022-08-05T23:25:51.905Z,4.55
2022-08-05T23:28:27.675Z,4.40
2022-08-05T23:31:16.119Z,4.72
2022-08-05T23:34:03.781Z,4.18
2022-08-05T23:36:39.729Z,4.13
2022-08-05T23:39:17.244Z,3.88
2022-08-05T23:41:52.259Z,3.92
2022-08-05T23:44:25.104Z,3.88
2022-08-05T23:46:56.162Z,3.60
2022-08-05T23:49:35.796Z,3.10
2022-08-05T23:52:21.984Z,3.45
2022-08-05T23:54:54.614Z,2.85
2022-08-05T23:57:24.393Z,3.53
